sensor_id;sensor_type;location;lat;lon;timestamp;temperature;humidity
2190;DHT22;1101;51.056;7.262;2023-04-01T00:00:02;8.90;99.90
2190;DHT22;1101;51.056;7.262;2023-04-01T00:02:30;8.90;99.90
2190;DHT22;1101;51.056;7.262;2023-04-01T00:04:58;8.90;99.90
2190;DHT22;1101;51.056;7.262;2023-04-01T00:07:25;8.90;99.90
2190;DHT22;1101;51.056;7.262;2023-04-01T00:09:57;8.90;99.90
2190;DHT22;1101;51.056;7.262;2023-04-01T00:12:25;8.80;99.90
2190;DHT22;1101;51.056;7.262;2023-04-01T00:14:53;8.80;99.90
2190;DHT22;1101;51.056;7.262;2023-04-01T00:17:20;8.80;99.90
2190;DHT22;1101;51.056;7.262;2023-04-01T00:19:49;8.80;99.90
2190;DHT22;1101;51.056;7.262;2023-04-01T00:22:16;8.80;99.90
2190;DHT22;1101;51.056;7.262;2023-04-01T00:24:44;8.80;99.90
2190;DHT22;1101;51.056;7.262;2023-04-01T00:27:13;8.80;99.90
2190;DHT22;1101;51.056;7.262;2023-04-01T00:29:41;8.80;99.90
2190;DHT22;1101;51.056;7.262;2023-04-01T00:32:10;8.80;99.90
2190;DHT22;1101;51.056;7.262;2023-04-01T00:34:38;8.70;99.90
2190;DHT22;1101;51.056;7.262;2023-04-01T00:37:06;8.80;99.90
2190;DHT22;1101;51.056;7.262;2023-04-01T00:39:35;8.80;99.90
2190;DHT22;1101;51.056;7.262;2023-04-01T00:42:03;8.80;99.90
2190;DHT22;1101;51.056;7.262;2023-04-01T00:44:34;8.70;99.90
2190;DHT22;1101;51.056;7.262;2023-04-01T00:47:01;8.80;99.90
2190;DHT22;1101;51.056;7.262;2023-04-01T00:49:32;8.70;99.90
2190;DHT22;1101;51.056;7.262;2023-04-01T00:52:03;8.70;99.90
2190;DHT22;1101;51.056;7.262;2023-04-01T00:54:32;8.70;99.90
2190;DHT22;1101;51.056;7.262;2023-04-01T00:57:03;8.70;99.90
2190;DHT22;1101;51.056;7.262;2023-04-01T00:59:37;8.70;99.90
2190;DHT22;1101;51.056;7.262;2023-04-01T01:02:08;8.70;99.90
2190;DHT22;1101;51.056;7.262;2023-04-01T01:04:38;8.70;99.90
2190;DHT22;1101;51.056;7.262;2023-04-01T01:07:13;8.70;99.90
2190;DHT22;1101;51.056;7.262;2023-04-01T01:09:49;8.70;99.90
2190;DHT22;1101;51.056;7.262;2023-04-01T01:12:22;8.70;99.90
2190;DHT22;1101;51.056;7.262;2023-04-01T01:15:02;8.70;99.90
2190;DHT22;1101;51.056;7.262;2023-04-01T01:17:43;8.70;99.90
2190;DHT22;1101;51.056;7.262;2023-04-01T01:20:32;8.70;99.90
2190;DHT22;1101;51.056;7.262;2023-04-01T01:26:23;8.70;99.90
2190;DHT22;1101;51.056;7.262;2023-04-01T01:29:02;8.70;99.90
2190;DHT22;1101;51.056;7.262;2023-04-01T01:31:37;8.70;99.90
2190;DHT22;1101;51.056;7.262;2023-04-01T01:34:16;8.70;99.90
2190;DHT22;1101;51.056;7.262;2023-04-01T01:36:52;8.60;99.90
2190;DHT22;1101;51.056;7.262;2023-04-01T01:39:26;8.70;99.90
2190;DHT22;1101;51.056;7.262;2023-04-01T01:41:56;8.60;99.90
2190;DHT22;1101;51.056;7.262;2023-04-01T01:44:25;8.60;99.90
2190;DHT22;1101;51.056;7.262;2023-04-01T01:46:54;8.60;99.90
2190;DHT22;1101;51.056;7.262;2023-04-01T01:49:23;8.60;99.90
2190;DHT22;1101;51.056;7.262;2023-04-01T01:51:53;8.60;99.90
2190;DHT22;1101;51.056;7.262;2023-04-01T01:54:21;8.60;99.90
2190;DHT22;1101;51.056;7.262;2023-04-01T01:56:50;8.70;99.90
2190;DHT22;1101;51.056;7.262;2023-04-01T01:59:20;8.60;99.90
2190;DHT22;1101;51.056;7.262;2023-04-01T02:01:51;8.60;99.90
2190;DHT22;1101;51.056;7.262;2023-04-01T02:04:21;8.60;99.90
2190;DHT22;1101;51.056;7.262;2023-04-01T02:06:55;8.60;99.90
2190;DHT22;1101;51.056;7.262;2023-04-01T02:09:24;8.60;99.90
2190;DHT22;1101;51.056;7.262;2023-04-01T02:11:57;8.60;99.90
2190;DHT22;1101;51.056;7.262;2023-04-01T02:14:27;8.60;99.90
2190;DHT22;1101;51.056;7.262;2023-04-01T02:16:58;8.70;99.90
2190;DHT22;1101;51.056;7.262;2023-04-01T02:19:31;8.70;99.90
2190;DHT22;1101;51.056;7.262;2023-04-01T02:22:03;8.60;99.90
2190;DHT22;1101;51.056;7.262;2023-04-01T02:24:33;8.60;99.90
2190;DHT22;1101;51.056;7.262;2023-04-01T02:27:03;8.60;99.90
2190;DHT22;1101;51.056;7.262;2023-04-01T02:29:32;8.60;99.90
2190;DHT22;1101;51.056;7.262;2023-04-01T02:32:00;8.60;99.90
2190;DHT22;1101;51.056;7.262;2023-04-01T02:34:28;8.60;99.90
2190;DHT22;1101;51.056;7.262;2023-04-01T02:36:57;8.60;99.90
2190;DHT22;1101;51.056;7.262;2023-04-01T02:39:26;8.60;99.90
2190;DHT22;1101;51.056;7.262;2023-04-01T02:41:54;8.50;99.90
2190;DHT22;1101;51.056;7.262;2023-04-01T02:44:22;8.50;99.90
2190;DHT22;1101;51.056;7.262;2023-04-01T02:46:50;8.50;99.90
2190;DHT22;1101;51.056;7.262;2023-04-01T02:49:17;8.50;99.90
2190;DHT22;1101;51.056;7.262;2023-04-01T02:51:45;8.50;99.90
2190;DHT22;1101;51.056;7.262;2023-04-01T02:54:13;8.50;99.90
2190;DHT22;1101;51.056;7.262;2023-04-01T02:56:42;8.40;99.90
2190;DHT22;1101;51.056;7.262;2023-04-01T02:59:10;8.50;99.90
2190;DHT22;1101;51.056;7.262;2023-04-01T03:01:38;8.40;99.90
2190;DHT22;1101;51.056;7.262;2023-04-01T03:04:06;8.40;99.90
2190;DHT22;1101;51.056;7.262;2023-04-01T03:06:34;8.40;99.90
2190;DHT22;1101;51.056;7.262;2023-04-01T03:09:02;8.40;99.90
2190;DHT22;1101;51.056;7.262;2023-04-01T03:11:30;8.40;99.90
2190;DHT22;1101;51.056;7.262;2023-04-01T03:13:59;8.40;99.90
2190;DHT22;1101;51.056;7.262;2023-04-01T03:16:27;8.40;99.90
2190;DHT22;1101;51.056;7.262;2023-04-01T03:18:54;8.40;99.90
2190;DHT22;1101;51.056;7.262;2023-04-01T03:21:25;8.40;99.90
2190;DHT22;1101;51.056;7.262;2023-04-01T03:23:53;8.30;99.90
2190;DHT22;1101;51.056;7.262;2023-04-01T03:26:20;8.30;99.90
2190;DHT22;1101;51.056;7.262;2023-04-01T03:28:49;8.40;99.90
2190;DHT22;1101;51.056;7.262;2023-04-01T03:31:18;8.30;99.90
2190;DHT22;1101;51.056;7.262;2023-04-01T03:33:49;8.30;99.90
2190;DHT22;1101;51.056;7.262;2023-04-01T03:36:17;8.40;99.90
2190;DHT22;1101;51.056;7.262;2023-04-01T03:38:45;8.30;99.90
2190;DHT22;1101;51.056;7.262;2023-04-01T03:41:13;8.30;99.90
2190;DHT22;1101;51.056;7.262;2023-04-01T03:43:41;8.30;99.90
2190;DHT22;1101;51.056;7.262;2023-04-01T03:46:09;8.30;99.90
2190;DHT22;1101;51.056;7.262;2023-04-01T03:48:38;8.30;99.90
2190;DHT22;1101;51.056;7.262;2023-04-01T03:51:07;8.30;99.90
2190;DHT22;1101;51.056;7.262;2023-04-01T03:53:35;8.30;99.90
2190;DHT22;1101;51.056;7.262;2023-04-01T03:56:04;8.30;99.90
2190;DHT22;1101;51.056;7.262;2023-04-01T03:58:32;8.30;99.90
2190;DHT22;1101;51.056;7.262;2023-04-01T04:00:59;8.30;99.90
2190;DHT22;1101;51.056;7.262;2023-04-01T04:03:27;8.30;99.90
2190;DHT22;1101;51.056;7.262;2023-04-01T04:05:57;8.30;99.90
2190;DHT22;1101;51.056;7.262;2023-04-01T04:08:24;8.30;99.90
2190;DHT22;1101;51.056;7.262;2023-04-01T04:10:55;8.30;99.90
2190;DHT22;1101;51.056;7.262;2023-04-01T04:13:23;8.30;99.90
2190;DHT22;1101;51.056;7.262;2023-04-01T04:15:50;8.30;99.90
2190;DHT22;1101;51.056;7.262;2023-04-01T04:18:18;8.20;99.90
2190;DHT22;1101;51.056;7.262;2023-04-01T04:20:46;8.30;99.90
2190;DHT22;1101;51.056;7.262;2023-04-01T04:23:18;8.30;99.90
2190;DHT22;1101;51.056;7.262;2023-04-01T04:25:54;8.30;99.90
2190;DHT22;1101;51.056;7.262;2023-04-01T04:28:22;8.30;99.90
2190;DHT22;1101;51.056;7.262;2023-04-01T04:30:50;8.20;99.90
2190;DHT22;1101;51.056;7.262;2023-04-01T04:33:18;8.30;99.90
2190;DHT22;1101;51.056;7.262;2023-04-01T04:35:46;8.30;99.90
2190;DHT22;1101;51.056;7.262;2023-04-01T04:38:14;8.30;99.90
2190;DHT22;1101;51.056;7.262;2023-04-01T04:40:43;8.20;99.90
2190;DHT22;1101;51.056;7.262;2023-04-01T04:43:11;8.30;99.90
2190;DHT22;1101;51.056;7.262;2023-04-01T04:45:40;8.20;99.90
2190;DHT22;1101;51.056;7.262;2023-04-01T04:48:09;8.20;99.90
2190;DHT22;1101;51.056;7.262;2023-04-01T04:50:37;8.20;99.90
2190;DHT22;1101;51.056;7.262;2023-04-01T04:53:09;8.20;99.90
2190;DHT22;1101;51.056;7.262;2023-04-01T04:55:37;8.30;99.90
2190;DHT22;1101;51.056;7.262;2023-04-01T04:58:06;8.20;99.90
2190;DHT22;1101;51.056;7.262;2023-04-01T05:00:33;8.20;99.90
2190;DHT22;1101;51.056;7.262;2023-04-01T05:03:01;8.30;99.90
2190;DHT22;1101;51.056;7.262;2023-04-01T05:05:29;8.30;99.90
2190;DHT22;1101;51.056;7.262;2023-04-01T05:07:57;8.30;99.90
2190;DHT22;1101;51.056;7.262;2023-04-01T05:10:25;8.20;99.90
2190;DHT22;1101;51.056;7.262;2023-04-01T05:12:53;8.20;99.90
2190;DHT22;1101;51.056;7.262;2023-04-01T05:15:22;8.30;99.90
2190;DHT22;1101;51.056;7.262;2023-04-01T05:17:50;8.30;99.90
2190;DHT22;1101;51.056;7.262;2023-04-01T05:20:18;8.30;99.90
2190;DHT22;1101;51.056;7.262;2023-04-01T05:22:46;8.30;99.90
2190;DHT22;1101;51.056;7.262;2023-04-01T05:25:14;8.30;99.90
2190;DHT22;1101;51.056;7.262;2023-04-01T05:27:42;8.30;99.90
2190;DHT22;1101;51.056;7.262;2023-04-01T05:30:10;8.30;99.90
2190;DHT22;1101;51.056;7.262;2023-04-01T05:32:40;8.30;99.90
2190;DHT22;1101;51.056;7.262;2023-04-01T05:35:08;8.30;99.90
2190;DHT22;1101;51.056;7.262;2023-04-01T05:37:36;8.30;99.90
2190;DHT22;1101;51.056;7.262;2023-04-01T05:40:05;8.30;99.90
2190;DHT22;1101;51.056;7.262;2023-04-01T05:42:33;8.30;99.90
2190;DHT22;1101;51.056;7.262;2023-04-01T05:45:04;8.30;99.90
2190;DHT22;1101;51.056;7.262;2023-04-01T05:47:32;8.30;99.90
2190;DHT22;1101;51.056;7.262;2023-04-01T05:50:02;8.30;99.90
2190;DHT22;1101;51.056;7.262;2023-04-01T05:52:29;8.30;99.90
2190;DHT22;1101;51.056;7.262;2023-04-01T05:54:57;8.30;99.90
2190;DHT22;1101;51.056;7.262;2023-04-01T05:57:26;8.30;99.90
2190;DHT22;1101;51.056;7.262;2023-04-01T05:59:54;8.30;99.90
2190;DHT22;1101;51.056;7.262;2023-04-01T06:02:21;8.30;99.90
2190;DHT22;1101;51.056;7.262;2023-04-01T06:04:54;8.30;99.90
2190;DHT22;1101;51.056;7.262;2023-04-01T06:07:27;8.30;99.90
2190;DHT22;1101;51.056;7.262;2023-04-01T06:09:56;8.30;99.90
2190;DHT22;1101;51.056;7.262;2023-04-01T06:12:43;8.30;99.90
2190;DHT22;1101;51.056;7.262;2023-04-01T06:15:23;8.30;99.90
2190;DHT22;1101;51.056;7.262;2023-04-01T06:20:48;8.30;99.90
2190;DHT22;1101;51.056;7.262;2023-04-01T06:23:29;8.30;99.90
2190;DHT22;1101;51.056;7.262;2023-04-01T06:26:11;8.30;99.90
2190;DHT22;1101;51.056;7.262;2023-04-01T06:28:59;8.30;99.90
2190;DHT22;1101;51.056;7.262;2023-04-01T06:31:44;8.30;99.90
2190;DHT22;1101;51.056;7.262;2023-04-01T06:34:35;8.30;99.90
2190;DHT22;1101;51.056;7.262;2023-04-01T06:37:23;8.40;99.90
2190;DHT22;1101;51.056;7.262;2023-04-01T06:40:09;8.30;99.90
2190;DHT22;1101;51.056;7.262;2023-04-01T06:42:48;8.40;99.90
2190;DHT22;1101;51.056;7.262;2023-04-01T06:45:30;8.30;99.90
2190;DHT22;1101;51.056;7.262;2023-04-01T06:48:15;8.40;99.90
2190;DHT22;1101;51.056;7.262;2023-04-01T06:50:53;8.40;99.90
2190;DHT22;1101;51.056;7.262;2023-04-01T06:53:26;8.40;99.90
2190;DHT22;1101;51.056;7.262;2023-04-01T06:56:04;8.40;99.90
2190;DHT22;1101;51.056;7.262;2023-04-01T06:58:37;8.40;99.90
2190;DHT22;1101;51.056;7.262;2023-04-01T07:01:08;8.40;99.90
2190;DHT22;1101;51.056;7.262;2023-04-01T07:03:41;8.40;99.90
2190;DHT22;1101;51.056;7.262;2023-04-01T07:06:23;8.50;99.90
2190;DHT22;1101;51.056;7.262;2023-04-01T07:08:53;8.40;99.90
2190;DHT22;1101;51.056;7.262;2023-04-01T07:11:26;8.50;99.90
2190;DHT22;1101;51.056;7.262;2023-04-01T07:14:00;8.40;99.90
2190;DHT22;1101;51.056;7.262;2023-04-01T07:16:32;8.50;99.90
2190;DHT22;1101;51.056;7.262;2023-04-01T07:19:03;8.50;99.90
2190;DHT22;1101;51.056;7.262;2023-04-01T07:21:36;8.50;99.90
2190;DHT22;1101;51.056;7.262;2023-04-01T07:24:05;8.50;99.90
2190;DHT22;1101;51.056;7.262;2023-04-01T07:26:37;8.50;99.90
2190;DHT22;1101;51.056;7.262;2023-04-01T07:29:09;8.50;99.90
2190;DHT22;1101;51.056;7.262;2023-04-01T07:31:49;8.60;99.90
2190;DHT22;1101;51.056;7.262;2023-04-01T07:34:23;8.60;99.90
2190;DHT22;1101;51.056;7.262;2023-04-01T07:36:58;8.60;99.90
2190;DHT22;1101;51.056;7.262;2023-04-01T07:39:36;8.60;99.90
2190;DHT22;1101;51.056;7.262;2023-04-01T07:42:15;8.60;99.90
2190;DHT22;1101;51.056;7.262;2023-04-01T07:44:49;8.70;99.90
2190;DHT22;1101;51.056;7.262;2023-04-01T07:47:31;8.60;99.90
2190;DHT22;1101;51.056;7.262;2023-04-01T07:50:10;8.60;99.90
2190;DHT22;1101;51.056;7.262;2023-04-01T07:52:46;8.60;99.90
2190;DHT22;1101;51.056;7.262;2023-04-01T07:55:19;8.70;99.90
2190;DHT22;1101;51.056;7.262;2023-04-01T07:57:55;8.70;99.90
2190;DHT22;1101;51.056;7.262;2023-04-01T08:00:28;8.70;99.90
2190;DHT22;1101;51.056;7.262;2023-04-01T08:03:21;8.70;99.90
2190;DHT22;1101;51.056;7.262;2023-04-01T08:05:55;8.70;99.90
2190;DHT22;1101;51.056;7.262;2023-04-01T08:08:34;8.70;99.90
2190;DHT22;1101;51.056;7.262;2023-04-01T08:11:12;8.70;99.90
2190;DHT22;1101;51.056;7.262;2023-04-01T08:13:45;8.70;99.90
2190;DHT22;1101;51.056;7.262;2023-04-01T08:16:20;8.70;99.90
2190;DHT22;1101;51.056;7.262;2023-04-01T08:18:56;8.70;99.90
2190;DHT22;1101;51.056;7.262;2023-04-01T08:21:28;8.70;99.90
2190;DHT22;1101;51.056;7.262;2023-04-01T08:23:58;8.70;99.90
2190;DHT22;1101;51.056;7.262;2023-04-01T08:26:35;8.80;99.90
2190;DHT22;1101;51.056;7.262;2023-04-01T08:29:13;8.80;99.90
2190;DHT22;1101;51.056;7.262;2023-04-01T08:31:45;8.80;99.90
2190;DHT22;1101;51.056;7.262;2023-04-01T08:34:19;8.80;99.90
2190;DHT22;1101;51.056;7.262;2023-04-01T08:36:50;8.80;99.90
2190;DHT22;1101;51.056;7.262;2023-04-01T08:39:23;8.80;99.90
2190;DHT22;1101;51.056;7.262;2023-04-01T08:45:30;8.80;99.90
2190;DHT22;1101;51.056;7.262;2023-04-01T08:48:23;8.80;99.90
2190;DHT22;1101;51.056;7.262;2023-04-01T08:54:15;8.80;99.90
2190;DHT22;1101;51.056;7.262;2023-04-01T08:56:53;8.80;99.90
2190;DHT22;1101;51.056;7.262;2023-04-01T08:59:45;8.80;99.90
2190;DHT22;1101;51.056;7.262;2023-04-01T09:02:31;8.80;99.90
2190;DHT22;1101;51.056;7.262;2023-04-01T09:05:31;8.80;99.90
2190;DHT22;1101;51.056;7.262;2023-04-01T09:08:11;8.80;99.90
2190;DHT22;1101;51.056;7.262;2023-04-01T09:11:11;8.80;99.90
2190;DHT22;1101;51.056;7.262;2023-04-01T09:14:10;8.80;99.90
2190;DHT22;1101;51.056;7.262;2023-04-01T09:19:54;8.90;99.90
2190;DHT22;1101;51.056;7.262;2023-04-01T09:22:35;8.90;99.90
2190;DHT22;1101;51.056;7.262;2023-04-01T09:25:24;8.90;99.90
2190;DHT22;1101;51.056;7.262;2023-04-01T09:28:05;8.90;99.90
2190;DHT22;1101;51.056;7.262;2023-04-01T09:31:09;8.90;99.90
2190;DHT22;1101;51.056;7.262;2023-04-01T09:34:12;9.00;99.90
2190;DHT22;1101;51.056;7.262;2023-04-01T09:36:47;9.00;99.90
2190;DHT22;1101;51.056;7.262;2023-04-01T09:39:36;9.00;99.90
2190;DHT22;1101;51.056;7.262;2023-04-01T09:45:00;9.00;99.90
2190;DHT22;1101;51.056;7.262;2023-04-01T09:47:44;9.00;99.90
2190;DHT22;1101;51.056;7.262;2023-04-01T09:50:30;9.00;99.90
2190;DHT22;1101;51.056;7.262;2023-04-01T09:53:14;9.00;99.90
2190;DHT22;1101;51.056;7.262;2023-04-01T09:56:14;9.00;99.90
2190;DHT22;1101;51.056;7.262;2023-04-01T10:02:18;9.00;99.90
2190;DHT22;1101;51.056;7.262;2023-04-01T10:05:33;9.00;99.90
2190;DHT22;1101;51.056;7.262;2023-04-01T10:08:27;9.10;99.90
2190;DHT22;1101;51.056;7.262;2023-04-01T10:11:13;9.10;99.90
2190;DHT22;1101;51.056;7.262;2023-04-01T10:17:33;9.10;99.90
2190;DHT22;1101;51.056;7.262;2023-04-01T10:20:25;9.10;99.90
2190;DHT22;1101;51.056;7.262;2023-04-01T10:23:23;9.20;99.90
2190;DHT22;1101;51.056;7.262;2023-04-01T10:26:22;9.20;99.90
2190;DHT22;1101;51.056;7.262;2023-04-01T10:29:10;9.20;99.90
2190;DHT22;1101;51.056;7.262;2023-04-01T10:32:08;9.20;99.90
2190;DHT22;1101;51.056;7.262;2023-04-01T10:38:24;9.20;99.90
2190;DHT22;1101;51.056;7.262;2023-04-01T10:41:31;9.20;99.90
2190;DHT22;1101;51.056;7.262;2023-04-01T10:44:23;9.20;99.90
2190;DHT22;1101;51.056;7.262;2023-04-01T10:53:32;9.10;99.90
2190;DHT22;1101;51.056;7.262;2023-04-01T10:56:34;9.10;99.90
2190;DHT22;1101;51.056;7.262;2023-04-01T11:02:27;9.10;99.90
2190;DHT22;1101;51.056;7.262;2023-04-01T11:08:52;9.20;99.90
2190;DHT22;1101;51.056;7.262;2023-04-01T11:12:06;9.20;99.90
2190;DHT22;1101;51.056;7.262;2023-04-01T11:15:03;9.20;99.90
2190;DHT22;1101;51.056;7.262;2023-04-01T11:20:54;9.30;99.90
2190;DHT22;1101;51.056;7.262;2023-04-01T11:23:54;9.30;99.90
2190;DHT22;1101;51.056;7.262;2023-04-01T11:26:43;9.30;99.90
2190;DHT22;1101;51.056;7.262;2023-04-01T11:29:27;9.30;99.90
2190;DHT22;1101;51.056;7.262;2023-04-01T11:32:07;9.30;99.90
2190;DHT22;1101;51.056;7.262;2023-04-01T11:35:01;9.30;99.90
2190;DHT22;1101;51.056;7.262;2023-04-01T11:37:38;9.30;99.90
2190;DHT22;1101;51.056;7.262;2023-04-01T11:40:19;9.30;99.90
2190;DHT22;1101;51.056;7.262;2023-04-01T11:42:55;9.30;99.90
2190;DHT22;1101;51.056;7.262;2023-04-01T11:45:35;9.40;99.90
2190;DHT22;1101;51.056;7.262;2023-04-01T11:54:16;9.40;99.90
2190;DHT22;1101;51.056;7.262;2023-04-01T11:56:59;9.40;99.90
2190;DHT22;1101;51.056;7.262;2023-04-01T11:59:51;9.40;99.90
2190;DHT22;1101;51.056;7.262;2023-04-01T12:02:25;9.40;99.90
2190;DHT22;1101;51.056;7.262;2023-04-01T12:05:07;9.40;99.90
2190;DHT22;1101;51.056;7.262;2023-04-01T12:07:53;9.40;99.90
2190;DHT22;1101;51.056;7.262;2023-04-01T12:10:26;9.40;99.90
2190;DHT22;1101;51.056;7.262;2023-04-01T12:13:02;9.40;99.90
2190;DHT22;1101;51.056;7.262;2023-04-01T12:15:38;9.40;99.90
2190;DHT22;1101;51.056;7.262;2023-04-01T12:18:17;9.40;99.90
2190;DHT22;1101;51.056;7.262;2023-04-01T12:20:50;9.40;99.90
2190;DHT22;1101;51.056;7.262;2023-04-01T12:23:35;9.50;99.90
2190;DHT22;1101;51.056;7.262;2023-04-01T12:26:28;9.50;99.90
2190;DHT22;1101;51.056;7.262;2023-04-01T12:29:14;9.50;99.90
2190;DHT22;1101;51.056;7.262;2023-04-01T12:31:56;9.50;99.90
2190;DHT22;1101;51.056;7.262;2023-04-01T12:34:54;9.50;99.90
2190;DHT22;1101;51.056;7.262;2023-04-01T12:37:31;9.50;99.90
2190;DHT22;1101;51.056;7.262;2023-04-01T12:40:24;9.50;99.90
2190;DHT22;1101;51.056;7.262;2023-04-01T12:43:11;9.50;99.90
2190;DHT22;1101;51.056;7.262;2023-04-01T12:45:49;9.50;99.90
2190;DHT22;1101;51.056;7.262;2023-04-01T12:48:30;9.50;99.90
2190;DHT22;1101;51.056;7.262;2023-04-01T12:51:36;9.50;99.90
2190;DHT22;1101;51.056;7.262;2023-04-01T12:54:24;9.50;99.90
2190;DHT22;1101;51.056;7.262;2023-04-01T12:57:07;9.50;99.90
2190;DHT22;1101;51.056;7.262;2023-04-01T12:59:48;9.60;99.90
2190;DHT22;1101;51.056;7.262;2023-04-01T13:02:30;9.60;99.90
2190;DHT22;1101;51.056;7.262;2023-04-01T13:05:24;9.60;99.90
2190;DHT22;1101;51.056;7.262;2023-04-01T13:08:08;9.70;99.90
2190;DHT22;1101;51.056;7.262;2023-04-01T13:10:57;9.60;99.90
2190;DHT22;1101;51.056;7.262;2023-04-01T13:13:39;9.70;99.90
2190;DHT22;1101;51.056;7.262;2023-04-01T13:16:15;9.70;99.90
2190;DHT22;1101;51.056;7.262;2023-04-01T13:18:55;9.70;99.90
2190;DHT22;1101;51.056;7.262;2023-04-01T13:21:32;9.70;99.90
2190;DHT22;1101;51.056;7.262;2023-04-01T13:24:07;9.70;99.90
2190;DHT22;1101;51.056;7.262;2023-04-01T13:26:44;9.70;99.90
2190;DHT22;1101;51.056;7.262;2023-04-01T13:29:21;9.70;99.90
2190;DHT22;1101;51.056;7.262;2023-04-01T13:32:00;9.70;99.90
2190;DHT22;1101;51.056;7.262;2023-04-01T13:34:48;9.70;99.90
2190;DHT22;1101;51.056;7.262;2023-04-01T13:37:31;9.70;99.90
2190;DHT22;1101;51.056;7.262;2023-04-01T13:40:30;9.70;99.90
2190;DHT22;1101;51.056;7.262;2023-04-01T13:43:04;9.70;99.90
2190;DHT22;1101;51.056;7.262;2023-04-01T13:45:42;9.80;99.90
2190;DHT22;1101;51.056;7.262;2023-04-01T13:48:29;9.80;99.90
2190;DHT22;1101;51.056;7.262;2023-04-01T13:51:16;9.80;99.90
2190;DHT22;1101;51.056;7.262;2023-04-01T13:56:57;9.80;99.90
2190;DHT22;1101;51.056;7.262;2023-04-01T13:59:44;9.80;99.90
2190;DHT22;1101;51.056;7.262;2023-04-01T14:02:25;9.80;99.90
2190;DHT22;1101;51.056;7.262;2023-04-01T14:05:09;9.80;99.90
2190;DHT22;1101;51.056;7.262;2023-04-01T14:07:54;9.80;99.90
2190;DHT22;1101;51.056;7.262;2023-04-01T14:10:33;9.80;99.90
2190;DHT22;1101;51.056;7.262;2023-04-01T14:13:09;9.80;99.90
2190;DHT22;1101;51.056;7.262;2023-04-01T14:15:54;9.80;99.90
2190;DHT22;1101;51.056;7.262;2023-04-01T14:18:52;9.80;99.90
2190;DHT22;1101;51.056;7.262;2023-04-01T14:21:27;9.80;99.90
2190;DHT22;1101;51.056;7.262;2023-04-01T14:24:14;9.80;99.90
2190;DHT22;1101;51.056;7.262;2023-04-01T14:27:00;9.80;99.90
2190;DHT22;1101;51.056;7.262;2023-04-01T14:29:35;9.80;99.90
2190;DHT22;1101;51.056;7.262;2023-04-01T14:32:10;9.80;99.90
2190;DHT22;1101;51.056;7.262;2023-04-01T14:34:50;9.80;99.90
2190;DHT22;1101;51.056;7.262;2023-04-01T14:37:48;9.80;99.90
2190;DHT22;1101;51.056;7.262;2023-04-01T14:40:27;9.80;99.90
2190;DHT22;1101;51.056;7.262;2023-04-01T14:43:06;9.90;99.90
2190;DHT22;1101;51.056;7.262;2023-04-01T14:46:03;9.80;99.90
2190;DHT22;1101;51.056;7.262;2023-04-01T14:48:37;9.80;99.90
2190;DHT22;1101;51.056;7.262;2023-04-01T14:51:17;9.80;99.90
2190;DHT22;1101;51.056;7.262;2023-04-01T14:54:01;9.80;99.90
2190;DHT22;1101;51.056;7.262;2023-04-01T14:56:41;9.80;99.90
2190;DHT22;1101;51.056;7.262;2023-04-01T14:59:14;9.80;99.90
2190;DHT22;1101;51.056;7.262;2023-04-01T15:01:47;9.80;99.90
2190;DHT22;1101;51.056;7.262;2023-04-01T15:04:37;9.80;99.90
2190;DHT22;1101;51.056;7.262;2023-04-01T15:07:24;9.80;99.90
2190;DHT22;1101;51.056;7.262;2023-04-01T15:09:58;9.90;99.90
2190;DHT22;1101;51.056;7.262;2023-04-01T15:12:32;9.80;99.90
2190;DHT22;1101;51.056;7.262;2023-04-01T15:15:13;9.80;99.90
2190;DHT22;1101;51.056;7.262;2023-04-01T15:17:55;9.70;99.90
2190;DHT22;1101;51.056;7.262;2023-04-01T15:20:38;9.70;99.90
2190;DHT22;1101;51.056;7.262;2023-04-01T15:23:21;9.70;99.90
2190;DHT22;1101;51.056;7.262;2023-04-01T15:26:16;9.80;99.90
2190;DHT22;1101;51.056;7.262;2023-04-01T15:29:00;9.80;99.90
2190;DHT22;1101;51.056;7.262;2023-04-01T15:31:33;9.80;99.90
2190;DHT22;1101;51.056;7.262;2023-04-01T15:34:24;9.80;99.90
2190;DHT22;1101;51.056;7.262;2023-04-01T15:36:58;9.80;99.90
2190;DHT22;1101;51.056;7.262;2023-04-01T15:39:39;9.70;99.90
2190;DHT22;1101;51.056;7.262;2023-04-01T15:42:20;9.70;99.90
2190;DHT22;1101;51.056;7.262;2023-04-01T15:47:58;9.70;99.90
2190;DHT22;1101;51.056;7.262;2023-04-01T15:50:55;9.70;99.90
2190;DHT22;1101;51.056;7.262;2023-04-01T15:53:46;9.70;99.90
2190;DHT22;1101;51.056;7.262;2023-04-01T15:56:28;9.70;99.90
2190;DHT22;1101;51.056;7.262;2023-04-01T15:59:04;9.70;99.90
2190;DHT22;1101;51.056;7.262;2023-04-01T16:01:41;9.70;99.90
2190;DHT22;1101;51.056;7.262;2023-04-01T16:04:31;9.70;99.90
2190;DHT22;1101;51.056;7.262;2023-04-01T16:07:10;9.70;99.90
2190;DHT22;1101;51.056;7.262;2023-04-01T16:09:56;9.60;99.90
2190;DHT22;1101;51.056;7.262;2023-04-01T16:12:37;9.60;99.90
2190;DHT22;1101;51.056;7.262;2023-04-01T16:15:17;9.60;99.90
2190;DHT22;1101;51.056;7.262;2023-04-01T16:18:06;9.60;99.90
2190;DHT22;1101;51.056;7.262;2023-04-01T16:20:44;9.60;99.90
2190;DHT22;1101;51.056;7.262;2023-04-01T16:23:18;9.60;99.90
2190;DHT22;1101;51.056;7.262;2023-04-01T16:25:53;9.60;99.90
2190;DHT22;1101;51.056;7.262;2023-04-01T16:28:29;9.60;99.90
2190;DHT22;1101;51.056;7.262;2023-04-01T16:31:00;9.60;99.90
2190;DHT22;1101;51.056;7.262;2023-04-01T16:33:37;9.60;99.90
2190;DHT22;1101;51.056;7.262;2023-04-01T16:36:13;9.60;99.90
2190;DHT22;1101;51.056;7.262;2023-04-01T16:38:49;9.60;99.90
2190;DHT22;1101;51.056;7.262;2023-04-01T16:41:20;9.60;99.90
2190;DHT22;1101;51.056;7.262;2023-04-01T16:43:50;9.60;99.90
2190;DHT22;1101;51.056;7.262;2023-04-01T16:46:32;9.60;99.90
2190;DHT22;1101;51.056;7.262;2023-04-01T16:49:28;9.60;99.90
2190;DHT22;1101;51.056;7.262;2023-04-01T16:52:12;9.50;99.90
2190;DHT22;1101;51.056;7.262;2023-04-01T16:54:45;9.60;99.90
2190;DHT22;1101;51.056;7.262;2023-04-01T16:57:20;9.50;99.90
2190;DHT22;1101;51.056;7.262;2023-04-01T16:59:56;9.50;99.90
2190;DHT22;1101;51.056;7.262;2023-04-01T17:02:30;9.50;99.90
2190;DHT22;1101;51.056;7.262;2023-04-01T17:05:02;9.50;99.90
2190;DHT22;1101;51.056;7.262;2023-04-01T17:07:40;9.50;99.90
2190;DHT22;1101;51.056;7.262;2023-04-01T17:10:33;9.50;99.90
2190;DHT22;1101;51.056;7.262;2023-04-01T17:13:19;9.40;99.90
2190;DHT22;1101;51.056;7.262;2023-04-01T17:15:58;9.40;99.90
2190;DHT22;1101;51.056;7.262;2023-04-01T17:18:37;9.40;99.90
2190;DHT22;1101;51.056;7.262;2023-04-01T17:21:14;9.40;99.90
2190;DHT22;1101;51.056;7.262;2023-04-01T17:23:51;9.40;99.90
2190;DHT22;1101;51.056;7.262;2023-04-01T17:26:31;9.40;99.90
2190;DHT22;1101;51.056;7.262;2023-04-01T17:29:05;9.40;99.90
2190;DHT22;1101;51.056;7.262;2023-04-01T17:31:45;9.30;99.90
2190;DHT22;1101;51.056;7.262;2023-04-01T17:34:28;9.30;99.90
2190;DHT22;1101;51.056;7.262;2023-04-01T17:37:09;9.30;99.90
2190;DHT22;1101;51.056;7.262;2023-04-01T17:39:50;9.30;99.90
2190;DHT22;1101;51.056;7.262;2023-04-01T17:42:24;9.30;99.90
2190;DHT22;1101;51.056;7.262;2023-04-01T17:45:02;9.30;99.90
2190;DHT22;1101;51.056;7.262;2023-04-01T17:47:46;9.20;99.90
2190;DHT22;1101;51.056;7.262;2023-04-01T17:50:23;9.20;99.90
2190;DHT22;1101;51.056;7.262;2023-04-01T17:53:01;9.20;99.90
2190;DHT22;1101;51.056;7.262;2023-04-01T17:55:48;9.20;99.90
2190;DHT22;1101;51.056;7.262;2023-04-01T17:58:19;9.20;99.90
2190;DHT22;1101;51.056;7.262;2023-04-01T18:00:59;9.20;99.90
2190;DHT22;1101;51.056;7.262;2023-04-01T18:06:35;9.20;99.90
2190;DHT22;1101;51.056;7.262;2023-04-01T18:09:15;9.20;99.90
2190;DHT22;1101;51.056;7.262;2023-04-01T18:11:54;9.20;99.90
2190;DHT22;1101;51.056;7.262;2023-04-01T18:14:54;9.10;99.90
2190;DHT22;1101;51.056;7.262;2023-04-01T18:17:33;9.20;99.90
2190;DHT22;1101;51.056;7.262;2023-04-01T18:20:20;9.20;99.90
2190;DHT22;1101;51.056;7.262;2023-04-01T18:22:56;9.10;99.90